Time;durP1;ratioP1;P1;durP2;ratioP2;P2;SDS_P1;SDS_P2;PMS_P1;PMS_P2;Temp;Humidity;BMP_temperature;BMP_pressure;BME280_temperature;BME280_humidity;BME280_pressure;Samples;Min_cycle;Max_cycle;Signal;HPM_P1;HPM_P2
2021/01/26 00:00:44;;;;;;;16.60;10.55;;;2.10;78.20;;;0.89;74.54;98103.44;5085231;28;20494;-79
2021/01/26 00:03:10;;;;;;;14.95;10.70;;;2.10;78.60;;;0.88;74.17;98108.81;5091249;28;20408;-80
2021/01/26 00:05:39;;;;;;;14.23;11.13;;;2.00;78.30;;;0.74;75.17;98100.75;5088053;28;20833;-78
2021/01/26 00:08:06;;;;;;;15.68;11.13;;;2.00;78.50;;;0.76;75.66;98105.75;5087658;28;20459;-78
2021/01/26 00:10:33;;;;;;;16.17;10.23;;;2.00;79.30;;;1.06;73.60;98110.13;5082566;28;20484;-78
2021/01/26 00:13:00;;;;;;;13.95;9.63;;;2.20;78.00;;;1.02;72.84;98105.44;5080031;28;20419;-78
2021/01/26 00:15:26;;;;;;;13.23;9.02;;;2.20;77.20;;;0.60;73.96;98111.06;5078885;28;20772;-78
2021/01/26 00:17:52;;;;;;;13.30;9.75;;;1.90;77.10;;;0.48;74.39;98107.19;5077754;28;20431;-78
2021/01/26 00:20:19;;;;;;;14.98;10.68;;;1.80;78.20;;;0.48;74.74;98110.63;5077075;28;20454;-78
2021/01/26 00:22:45;;;;;;;15.40;10.70;;;1.70;78.70;;;0.57;75.11;98104.41;5079305;28;20484;-77
2021/01/26 00:25:15;;;;;;;14.13;10.27;;;1.80;79.00;;;0.71;74.10;98105.47;5059719;28;20449;-77
2021/01/26 00:27:43;;;;;;;13.52;9.63;;;1.90;78.40;;;0.81;74.15;98110.47;5059711;28;20533;-79
2021/01/26 00:30:16;;;;;;;16.65;10.02;;;2.00;78.20;;;0.70;73.94;98112.47;5061041;28;20674;-77
2021/01/26 00:32:42;;;;;;;14.38;9.77;;;2.00;78.00;;;0.92;73.55;98108.28;5079797;28;20765;-77
2021/01/26 00:35:11;;;;;;;12.32;9.02;;;2.10;78.00;;;0.89;72.81;98111.25;5079469;28;20673;-78
2021/01/26 00:37:37;;;;;;;14.27;9.65;;;2.10;77.10;;;0.71;72.95;98113.28;5064118;28;20441;-78
2021/01/26 00:40:06;;;;;;;12.75;9.38;;;2.00;77.00;;;0.75;73.64;98117.97;5083433;28;20479;-78
2021/01/26 00:42:32;;;;;;;11.95;8.77;;;2.00;77.40;;;0.91;72.36;98111.03;5086081;28;20420;-78
2021/01/26 00:45:00;;;;;;;11.38;8.48;;;2.00;77.10;;;0.75;72.51;98123.19;5064646;28;20419;-78
2021/01/26 00:47:26;;;;;;;11.25;8.20;;;2.10;76.50;;;0.64;72.88;98120.97;5075957;28;20910;-79
2021/01/26 00:49:52;;;;;;;11.82;9.07;;;1.90;76.50;;;0.73;72.91;98124.34;5078042;28;20502;-79
2021/01/26 00:52:18;;;;;;;11.43;8.13;;;1.90;77.10;;;0.83;72.18;98122.31;5076723;28;20404;-77
2021/01/26 00:54:45;;;;;;;10.93;8.05;;;2.00;76.50;;;0.87;71.50;98120.22;5076345;28;20411;-78
2021/01/26 00:57:11;;;;;;;14.13;9.27;;;2.00;76.10;;;0.75;71.49;98123.19;5061653;28;20415;-79
2021/01/26 00:59:38;;;;;;;12.02;8.65;;;2.10;75.80;;;0.86;71.34;98129.81;5080790;28;20423;-79
2021/01/26 01:02:05;;;;;;;12.43;9.07;;;2.00;75.80;;;0.84;71.89;98121.34;5080567;28;20403;-79
2021/01/26 01:04:31;;;;;;;11.48;8.48;;;2.10;76.10;;;0.72;71.16;98130.53;5080719;28;20443;-78
2021/01/26 01:06:57;;;;;;;10.05;8.10;;;2.00;75.30;;;0.56;71.93;98128.00;5080070;28;20417;-79
2021/01/26 01:09:24;;;;;;;12.20;8.45;;;1.90;75.80;;;0.53;71.94;98133.53;5079838;28;20506;-79
2021/01/26 01:11:50;;;;;;;13.20;9.55;;;1.80;75.70;;;0.43;72.37;98135.56;5080140;28;20580;-79
2021/01/26 01:14:16;;;;;;;11.55;8.82;;;1.70;76.40;;;0.36;73.09;98127.59;5079822;28;20427;-79
2021/01/26 01:16:42;;;;;;;12.95;9.48;;;1.60;76.50;;;0.56;72.07;98141.03;5080588;28;20420;-79
2021/01/26 01:19:09;;;;;;;13.98;9.13;;;1.70;76.60;;;0.47;71.79;98142.84;5079097;28;20570;-79
2021/01/26 01:21:35;;;;;;;13.27;8.55;;;1.70;75.60;;;0.42;72.00;98139.94;5080018;28;20403;-79
2021/01/26 01:24:02;;;;;;;10.57;7.93;;;1.70;75.80;;;0.58;69.90;98146.91;5079722;28;20459;-79
2021/01/26 01:26:28;;;;;;;10.70;8.13;;;1.80;74.80;;;0.52;70.60;98144.97;5079717;28;20579;-79
2021/01/26 01:28:54;;;;;;;12.02;8.23;;;1.80;74.90;;;0.52;70.31;98151.00;5079674;28;20504;-78
2021/01/26 01:31:20;;;;;;;10.23;7.40;;;1.80;74.20;;;0.49;69.98;98153.91;5080903;28;20430;-79
2021/01/26 01:33:47;;;;;;;11.88;7.97;;;1.80;74.10;;;0.46;69.56;98163.84;5079938;28;20404;-79
2021/01/26 01:36:14;;;;;;;12.98;8.23;;;1.80;73.90;;;0.35;70.00;98173.66;5079587;28;20418;-79
2021/01/26 01:38:40;;;;;;;10.05;7.72;;;1.60;74.00;;;0.40;69.65;98170.53;5079536;28;20407;-79
2021/01/26 01:41:06;;;;;;;10.98;7.72;;;1.60;74.00;;;0.49;69.75;98173.94;5079363;28;20966;-79
2021/01/26 01:43:32;;;;;;;11.38;8.50;;;1.70;74.00;;;0.52;69.74;98176.22;5080041;28;20411;-79
2021/01/26 01:46:03;;;;;;;10.55;8.10;;;1.70;74.00;;;0.44;70.03;98181.47;5078696;28;20411;-79
2021/01/26 01:48:35;;;;;;;11.30;8.07;;;1.70;73.80;;;0.48;69.16;98180.13;5079039;28;20474;-79
2021/01/26 01:51:07;;;;;;;10.75;8.02;;;1.70;74.20;;;0.36;69.81;98179.69;5078877;28;20419;-78
2021/01/26 01:53:40;;;;;;;10.85;8.32;;;1.60;73.70;;;0.50;68.96;98172.97;5079353;28;20465;-78
2021/01/26 01:56:10;;;;;;;12.10;8.05;;;1.70;73.30;;;0.37;68.67;98186.53;5079242;28;20411;-79
2021/01/26 01:58:42;;;;;;;11.60;8.18;;;1.70;73.00;;;0.37;69.68;98181.31;5080324;28;20458;-78
2021/01/26 02:01:13;;;;;;;12.65;8.13;;;1.60;73.60;;;0.32;69.48;98179.19;5080126;28;20453;-78
2021/01/26 02:03:45;;;;;;;13.32;8.20;;;1.60;73.50;;;0.42;69.30;98192.03;5085739;28;20410;-78
2021/01/26 02:06:12;;;;;;;12.73;8.40;;;1.60;73.30;;;0.36;69.67;98198.72;5087372;28;20757;-78
2021/01/26 02:08:51;;;;;;;12.60;8.32;;;1.60;73.40;;;0.27;69.33;98204.13;5083675;28;20742;-79
2021/01/26 02:11:18;;;;;;;12.93;8.55;;;1.60;73.40;;;0.49;69.13;98206.00;5081047;28;20450;-78
2021/01/26 02:13:44;;;;;;;11.77;8.57;;;1.70;73.40;;;0.39;69.20;98206.19;5086457;28;20808;-78
2021/01/26 02:16:20;;;;;;;11.77;8.05;;;1.70;73.00;;;0.42;69.09;98210.25;5086312;28;20414;-78
2021/01/26 02:19:16;;;;;;;13.48;8.40;;;1.70;72.90;;;0.38;68.93;98209.78;5093541;28;20447;-78
2021/01/26 02:22:44;;;;;;;13.55;8.73;;;1.60;73.00;;;0.46;68.34;98211.53;5081760;28;20811;-78
2021/01/26 02:25:38;;;;;;;12.23;8.57;;;1.70;72.50;;;0.44;68.61;98220.53;5040583;28;20809;-78
2021/01/26 02:28:52;;;;;;;16.00;9.02;;;1.70;72.40;;;0.36;68.70;98219.56;5061364;28;20527;-79
2021/01/26 02:32:09;;;;;;;17.33;9.45;;;1.70;72.60;;;0.39;68.57;98224.41;4997574;28;20481;-79
2021/01/26 02:35:50;;;;;;;14.27;8.85;;;1.60;72.60;;;0.35;68.84;98219.72;5079098;28;20415;-79
2021/01/26 02:39:05;;;;;;;14.13;9.00;;;1.70;72.50;;;0.33;68.77;98226.88;4996511;28;20420;-79
2021/01/26 02:41:40;;;;;;;14.77;9.15;;;1.70;72.50;;;0.47;68.21;98225.38;4981030;28;20430;-79
2021/01/26 02:44:17;;;;;;;15.30;8.80;;;1.70;72.30;;;0.47;68.60;98225.38;5075048;28;20442;-79
2021/01/26 02:46:47;;;;;;;13.13;9.38;;;1.70;72.60;;;0.41;69.03;98220.84;5078323;28;20454;-78
2021/01/26 02:49:32;;;;;;;17.10;10.77;;;1.70;72.50;;;0.35;69.73;98222.31;5078641;28;20399;-78
2021/01/26 02:52:08;;;;;;;15.53;9.73;;;1.70;73.10;;;0.48;68.17;98225.22;5077719;28;20432;-78
2021/01/26 02:54:52;;;;;;;16.20;9.98;;;1.70;72.30;;;0.35;69.41;98222.31;5077142;28;20420;-78
2021/01/26 02:57:26;;;;;;;14.70;9.38;;;1.70;73.00;;;0.53;68.34;98230.72;5077395;28;20686;-78
2021/01/26 02:59:56;;;;;;;15.13;9.80;;;1.70;73.30;;;0.67;67.99;98234.47;5076376;28;20423;-78
2021/01/26 03:02:35;;;;;;;13.00;9.32;;;1.90;72.50;;;0.71;67.72;98235.75;5076670;28;20395;-78
2021/01/26 03:05:07;;;;;;;14.30;9.13;;;1.90;71.90;;;0.57;67.54;98239.03;5076397;28;20423;-77
2021/01/26 03:07:39;;;;;;;15.15;9.10;;;1.90;71.50;;;0.57;67.76;98236.44;5059277;28;20813;-78
2021/01/26 03:10:11;;;;;;;14.93;10.32;;;1.80;71.90;;;0.49;68.30;98237.28;5076351;28;20421;-78
2021/01/26 03:12:42;;;;;;;15.40;9.98;;;1.80;72.10;;;0.38;69.13;98224.56;5076424;28;20431;-78
2021/01/26 03:15:15;;;;;;;18.63;11.43;;;1.70;72.80;;;0.35;70.10;98230.94;5076404;28;20415;-78
2021/01/26 03:17:45;;;;;;;15.50;9.73;;;1.70;73.60;;;0.35;69.01;98225.75;5077296;28;20415;-78
2021/01/26 03:20:20;;;;;;;15.02;10.18;;;1.60;73.20;;;0.51;68.80;98224.09;5075834;28;20754;-78
2021/01/26 03:22:50;;;;;;;14.88;10.23;;;1.70;72.90;;;0.32;69.29;98217.44;5076769;28;20412;-78
2021/01/26 03:25:21;;;;;;;16.95;9.80;;;1.60;73.10;;;0.33;68.80;98216.47;5077605;28;20715;-78
2021/01/26 03:27:50;;;;;;;13.65;10.10;;;1.60;73.10;;;0.20;69.67;98214.38;5077668;28;20404;-78
2021/01/26 03:30:23;;;;;;;16.23;10.02;;;1.50;73.40;;;0.23;69.63;98208.81;5076439;28;20419;-77
2021/01/26 03:32:59;;;;;;;12.82;9.90;;;1.50;73.50;;;0.40;69.02;98209.59;5082974;28;20502;-78
2021/01/26 03:35:25;;;;;;;15.03;9.60;;;1.60;73.10;;;0.36;68.47;98206.53;5088623;28;20577;-79
2021/01/26 03:37:57;;;;;;;15.73;10.00;;;1.60;72.70;;;0.34;68.39;98203.28;5088570;28;20414;-79
2021/01/26 03:40:23;;;;;;;14.93;10.18;;;1.60;72.80;;;0.33;68.45;98203.44;5080923;28;20415;-77
2021/01/26 03:42:50;;;;;;;15.38;9.68;;;1.60;72.50;;;0.42;68.38;98199.03;5087281;28;20462;-78
2021/01/26 03:45:17;;;;;;;13.82;9.38;;;1.60;72.50;;;0.39;69.04;98206.19;5092151;28;20412;-78
2021/01/26 03:47:59;;;;;;;16.48;10.02;;;1.70;72.70;;;0.39;68.58;98203.59;5092540;28;20415;-77
2021/01/26 03:50:48;;;;;;;14.75;9.85;;;1.70;72.40;;;0.44;68.02;98207.50;5078808;28;20412;-78
2021/01/26 03:53:37;;;;;;;15.02;9.95;;;1.70;72.20;;;0.50;68.16;98218.06;5076159;28;20412;-79
2021/01/26 03:56:12;;;;;;;20.63;10.20;;;1.70;72.00;;;0.50;68.03;98218.06;5076155;28;20416;-79
2021/01/26 03:58:56;;;;;;;17.77;10.38;;;1.70;72.10;;;0.44;67.96;98208.31;5077810;28;20499;-79
2021/01/26 04:01:32;;;;;;;17.40;10.43;;;1.80;72.30;;;0.52;68.06;98212.69;5077660;28;20410;-79
2021/01/26 04:04:05;;;;;;;17.00;10.07;;;1.80;72.10;;;0.48;67.99;98209.59;5077193;28;20407;-79
2021/01/26 04:06:40;;;;;;;16.77;10.20;;;1.80;72.10;;;0.41;68.28;98211.25;5076757;28;20403;-78
2021/01/26 04:09:10;;;;;;;13.77;9.65;;;1.70;72.20;;;0.30;68.80;98209.78;5077427;28;20413;-78
2021/01/26 04:11:47;;;;;;;16.10;9.82;;;1.60;72.60;;;0.27;69.06;98212.75;5077445;28;20400;-78
2021/01/26 04:14:21;;;;;;;16.27;9.48;;;1.60;72.90;;;0.31;68.60;98201.00;5074376;28;20431;-78
2021/01/26 04:16:53;;;;;;;16.17;10.45;;;1.60;72.80;;;0.29;69.00;98194.34;5074476;28;20403;-80
2021/01/26 04:19:25;;;;;;;14.55;9.63;;;1.60;72.90;;;0.36;68.54;98196.13;5076660;28;20434;-78
2021/01/26 04:21:51;;;;;;;16.17;10.43;;;1.60;72.90;;;0.27;69.68;98197.13;5089500;28;20461;-78
2021/01/26 04:24:18;;;;;;;19.38;11.00;;;1.60;73.10;;;0.34;69.33;98200.69;5091295;28;20410;-79
2021/01/26 04:26:48;;;;;;;14.70;9.02;;;1.60;73.50;;;0.44;68.49;98199.69;5090397;28;20403;-79
2021/01/26 04:29:15;;;;;;;14.60;8.65;;;1.70;72.90;;;0.42;67.76;98197.25;5085497;28;20662;-79
2021/01/26 04:31:41;;;;;;;14.75;8.63;;;1.70;72.10;;;0.42;68.46;98199.84;5079142;28;20825;-79
2021/01/26 04:34:08;;;;;;;14.05;8.57;;;1.70;72.30;;;0.40;68.35;98199.19;5080950;28;20800;-78
2021/01/26 04:36:34;;;;;;;14.73;8.77;;;1.70;72.30;;;0.51;68.70;98204.06;5081358;28;20403;-79
2021/01/26 04:39:00;;;;;;;14.60;8.55;;;1.70;72.60;;;0.49;68.68;98200.81;5064086;28;20460;-79
2021/01/26 04:41:40;;;;;;;15.27;9.13;;;1.80;72.30;;;0.53;68.65;98191.66;5063907;28;20407;-79
2021/01/26 04:44:32;;;;;;;12.57;8.60;;;1.80;72.70;;;0.63;68.19;98194.91;5081499;28;20426;-79
2021/01/26 04:47:16;;;;;;;13.93;8.30;;;1.80;72.30;;;0.64;68.16;98201.72;5085025;28;20414;-79
2021/01/26 04:50:00;;;;;;;14.88;8.00;;;1.90;72.30;;;0.63;67.73;98200.09;5091317;28;20415;-78
2021/01/26 04:52:47;;;;;;;12.90;7.50;;;1.90;72.00;;;0.65;67.94;98199.94;5087804;28;20430;-79
2021/01/26 04:55:25;;;;;;;14.27;7.70;;;1.90;72.10;;;0.77;67.62;98201.19;5089633;28;20407;-78
2021/01/26 04:58:15;;;;;;;14.70;7.75;;;2.00;71.90;;;0.75;67.75;98197.97;5070427;28;20438;-78
2021/01/26 05:00:54;;;;;;;13.55;7.55;;;2.00;72.30;;;0.77;67.68;98202.00;5093131;28;20489;-79
2021/01/26 05:03:40;;;;;;;13.65;7.72;;;2.10;71.90;;;0.81;67.35;98212.09;5095231;28;20404;-79
2021/01/26 05:06:14;;;;;;;13.15;7.32;;;2.00;71.40;;;0.78;67.71;98216.66;5091168;28;20407;-79
2021/01/26 05:08:48;;;;;;;13.27;7.63;;;2.00;71.70;;;0.78;67.45;98210.63;5078165;28;20645;-79
2021/01/26 05:11:18;;;;;;;15.38;7.43;;;2.10;71.90;;;0.87;68.13;98220.06;5079050;28;20801;-78
2021/01/26 05:13:50;;;;;;;11.98;7.43;;;2.10;71.90;;;0.80;68.21;98224.31;5078615;28;20431;-78
2021/01/26 05:16:30;;;;;;;11.10;6.72;;;2.10;71.90;;;0.79;67.64;98230.50;5078921;28;20446;-79
2021/01/26 05:19:05;;;;;;;11.02;7.15;;;2.00;71.70;;;0.80;67.84;98228.72;5078567;28;20422;-78
2021/01/26 05:21:41;;;;;;;15.68;7.43;;;2.00;71.80;;;0.78;67.80;98232.28;5079220;28;20827;-78
2021/01/26 05:24:29;;;;;;;11.98;7.22;;;2.00;71.80;;;0.77;68.02;98254.13;5079733;28;20994;-78
2021/01/26 05:26:55;;;;;;;14.23;7.03;;;2.10;72.00;;;0.85;68.00;98252.47;5079684;28;20414;-78
2021/01/26 05:29:21;;;;;;;13.75;7.30;;;2.10;71.80;;;0.81;68.01;98238.97;5081077;28;20403;-78
2021/01/26 05:31:56;;;;;;;16.10;6.70;;;2.10;71.80;;;0.88;67.90;98241.72;5089603;28;20423;-78
2021/01/26 05:34:24;;;;;;;14.27;6.63;;;2.10;72.10;;;0.80;67.87;98234.75;5092431;28;20411;-78
2021/01/26 05:36:51;;;;;;;16.23;7.30;;;2.10;72.00;;;0.83;68.51;98241.41;5081666;28;20832;-78
2021/01/26 05:39:24;;;;;;;15.43;7.55;;;2.10;72.40;;;0.77;68.12;98248.09;5079849;28;20450;-78
2021/01/26 05:41:50;;;;;;;10.98;6.75;;;2.10;72.00;;;0.84;68.48;98249.03;5077503;28;20864;-78
2021/01/26 05:44:18;;;;;;;12.60;7.18;;;2.10;72.40;;;0.84;68.36;98245.63;5079165;28;20518;-78
2021/01/26 05:46:47;;;;;;;11.23;6.97;;;2.10;72.30;;;0.85;68.43;98236.84;5078262;28;20467;-78
2021/01/26 05:49:33;;;;;;;14.73;6.80;;;2.10;72.00;;;0.78;68.40;98234.09;5077949;28;20438;-78
2021/01/26 05:52:01;;;;;;;10.82;6.40;;;2.10;72.10;;;0.72;68.69;98232.97;5079084;28;20499;-78
2021/01/26 05:54:29;;;;;;;15.30;6.90;;;2.00;72.30;;;0.71;68.43;98235.75;5079381;28;20424;-78
2021/01/26 05:56:56;;;;;;;12.50;6.38;;;2.00;72.50;;;0.84;68.42;98230.81;5080557;28;20404;-78
2021/01/26 05:59:30;;;;;;;12.18;6.30;;;2.00;72.50;;;0.87;68.18;98230.47;5094968;28;20419;-77
2021/01/26 06:02:10;;;;;;;15.95;6.25;;;2.10;72.10;;;0.83;68.83;98236.22;5081387;28;20658;-81
2021/01/26 06:04:38;;;;;;;10.70;5.80;;;2.10;72.70;;;0.98;67.51;98248.34;5085668;28;20412;-82
2021/01/26 06:07:15;;;;;;;9.65;5.75;;;2.10;72.00;;;1.13;67.29;98246.66;5067628;28;20430;-82
2021/01/26 06:09:44;;;;;;;8.57;5.50;;;2.30;71.60;;;1.09;67.40;98255.81;5083884;28;20959;-83
2021/01/26 06:12:19;;;;;;;10.52;5.10;;;2.30;71.40;;;1.06;67.29;98255.31;5083010;28;20757;-83
2021/01/26 06:15:00;;;;;;;9.00;5.13;;;2.30;71.20;;;1.02;67.55;98262.69;5081952;28;20427;-79
2021/01/26 06:17:29;;;;;;;13.02;5.03;;;2.30;71.20;;;0.99;66.86;98273.44;5082915;28;20507;-82
2021/01/26 06:20:14;;;;;;;10.18;5.07;;;2.20;71.00;;;1.06;66.75;98269.16;5082598;28;20431;-81
2021/01/26 06:22:41;;;;;;;7.97;4.63;;;2.30;70.50;;;1.16;66.54;98267.19;5080595;28;20410;-81
2021/01/26 06:25:14;;;;;;;6.88;4.82;;;2.40;70.60;;;1.14;66.41;98276.94;5081718;28;20811;-81
2021/01/26 06:27:51;;;;;;;8.77;4.73;;;2.40;70.60;;;1.15;66.63;98273.38;5081114;28;20404;-80
2021/01/26 06:30:42;;;;;;;12.68;5.40;;;2.40;70.50;;;1.22;66.28;98283.13;5081858;28;20761;-80
2021/01/26 06:33:46;;;;;;;10.07;5.00;;;2.40;70.50;;;1.24;66.48;98281.97;5090781;28;20465;-80
2021/01/26 06:37:15;;;;;;;10.57;5.32;;;2.50;70.20;;;1.16;66.43;98284.63;5085359;28;20415;-80
2021/01/26 06:40:26;;;;;;;9.73;5.13;;;2.40;70.30;;;1.17;67.18;98284.44;5083601;28;20451;-80
2021/01/26 06:43:02;;;;;;;9.43;5.17;;;2.40;70.90;;;1.22;66.76;98276.09;5090061;28;20494;-80
2021/01/26 06:45:39;;;;;;;8.95;5.00;;;2.40;70.80;;;1.25;67.27;98290.63;5089347;28;20412;-81
2021/01/26 06:48:36;;;;;;;8.23;4.95;;;2.40;71.50;;;1.21;67.16;98291.91;5079480;28;20414;-81
2021/01/26 06:51:50;;;;;;;10.50;5.03;;;2.40;71.20;;;1.12;68.71;98302.41;5077797;28;20411;-81
2021/01/26 06:55:12;;;;;;;12.32;5.07;;;2.40;72.70;;;1.20;68.10;98308.56;5084158;28;20384;-79
2021/01/26 06:58:37;;;;;;;7.55;4.95;;;2.40;72.10;;;1.24;68.35;98323.69;5093125;28;20404;-80
2021/01/26 07:01:37;;;;;;;10.63;4.82;;;2.40;72.40;;;1.29;67.88;98320.56;5053320;28;20851;-81
2021/01/26 07:04:56;;;;;;;8.37;4.63;;;2.40;72.10;;;1.23;67.97;98324.69;5086465;28;20407;-78
2021/01/26 07:08:26;;;;;;;8.00;4.57;;;2.40;72.00;;;1.27;67.89;98325.16;5081528;28;20403;-81
2021/01/26 07:11:31;;;;;;;9.88;4.35;;;2.50;71.60;;;1.25;67.99;98332.34;5020179;28;20631;-80
2021/01/26 07:14:07;;;;;;;9.20;4.10;;;2.50;72.00;;;1.31;67.89;98335.09;5016500;28;20423;-81
2021/01/26 07:16:52;;;;;;;9.85;4.63;;;2.50;71.90;;;1.32;68.33;98335.91;5065346;28;20400;-80
2021/01/26 07:19:59;;;;;;;10.60;4.70;;;2.50;72.30;;;1.36;68.85;98343.19;5081571;28;20777;-81
2021/01/26 07:23:16;;;;;;;11.63;4.60;;;2.60;72.30;;;1.37;68.50;98350.06;5081140;28;20411;-81
2021/01/26 07:26:24;;;;;;;9.38;4.60;;;2.60;72.40;;;1.40;69.29;98352.34;5056375;28;20740;-81
2021/01/26 07:29:19;;;;;;;13.43;4.90;;;2.60;73.40;;;1.35;69.46;98353.81;5081274;28;20423;-81
2021/01/26 07:31:52;;;;;;;7.45;3.95;;;2.60;73.50;;;1.45;69.22;98364.84;5079239;28;20404;-80
2021/01/26 07:34:27;;;;;;;9.38;4.22;;;2.60;73.40;;;1.24;69.91;98367.22;5078486;28;20422;-80
2021/01/26 07:37:02;;;;;;;7.50;4.17;;;2.50;73.60;;;1.38;69.93;98375.16;5079167;28;20404;-81
2021/01/26 07:39:38;;;;;;;13.63;4.90;;;2.50;74.00;;;1.33;70.03;98384.47;5080735;28;20411;-81
2021/01/26 07:42:11;;;;;;;8.85;4.18;;;2.50;74.00;;;1.36;70.72;98384.13;5083498;28;20399;-80
2021/01/26 07:44:45;;;;;;;13.23;4.47;;;2.60;74.30;;;1.34;70.21;98392.13;5088290;28;20491;-82
2021/01/26 07:47:20;;;;;;;12.68;4.68;;;2.60;74.00;;;1.53;69.36;98406.56;5085569;28;20408;-80
2021/01/26 07:49:53;;;;;;;13.32;4.22;;;2.70;73.80;;;1.42;69.43;98399.94;5084180;28;20408;-80
2021/01/26 07:52:21;;;;;;;12.93;4.55;;;2.70;73.50;;;1.54;68.76;98406.41;5083764;28;20416;-80
2021/01/26 07:55:05;;;;;;;10.02;4.50;;;2.70;73.00;;;1.49;68.89;98408.72;5080944;28;20486;-80
2021/01/26 07:57:40;;;;;;;11.48;4.10;;;2.70;72.80;;;1.48;69.20;98412.31;5080107;28;20419;-80
2021/01/26 08:00:12;;;;;;;8.57;3.63;;;2.70;73.10;;;1.58;67.01;98421.75;5062019;28;20415;-80
2021/01/26 08:02:44;;;;;;;10.20;4.40;;;2.70;71.40;;;1.59;67.53;98421.53;5079073;28;20491;-80
2021/01/26 08:05:15;;;;;;;12.88;4.10;;;2.80;71.70;;;1.70;67.51;98412.56;5079468;28;20469;-80
2021/01/26 08:07:44;;;;;;;10.85;4.60;;;2.90;72.00;;;1.72;66.36;98414.00;5079626;28;20404;-80
2021/01/26 08:10:20;;;;;;;10.98;4.80;;;2.90;70.80;;;1.67;67.10;98411.09;5084241;28;20438;-80
2021/01/26 08:12:47;;;;;;;10.40;4.07;;;2.90;71.10;;;1.71;66.86;98416.78;5065917;28;20502;-80
2021/01/26 08:15:20;;;;;;;13.75;5.93;;;2.90;71.10;;;1.75;67.18;98418.88;5068159;28;20428;-79
2021/01/26 08:17:47;;;;;;;12.43;5.75;;;2.90;71.20;;;1.75;67.02;98423.28;5081726;28;20411;-81
2021/01/26 08:20:27;;;;;;;14.07;4.28;;;2.90;70.70;;;1.66;66.83;98429.50;5078972;28;20530;-81
2021/01/26 08:22:59;;;;;;;9.77;4.40;;;2.90;70.80;;;1.55;68.08;98430.72;5078316;28;20411;-81
2021/01/26 08:25:31;;;;;;;15.27;4.95;;;2.80;71.60;;;1.50;67.57;98435.63;5060782;28;20625;-80
2021/01/26 08:28:01;;;;;;;7.32;4.25;;;2.70;71.70;;;1.53;67.88;98435.28;5077673;28;20412;-81
2021/01/26 08:31:02;;;;;;;7.55;4.30;;;2.70;71.90;;;1.42;67.70;98441.69;5079499;28;20411;-82
2021/01/26 08:33:34;;;;;;;15.10;5.43;;;2.70;71.90;;;1.42;68.11;98436.47;5080839;28;20419;-81
2021/01/26 08:36:25;;;;;;;17.70;5.15;;;2.70;72.30;;;1.50;67.99;98456.50;5066282;28;20424;-82
2021/01/26 08:38:58;;;;;;;13.85;6.07;;;2.70;72.00;;;1.48;68.52;98456.66;5083533;28;20407;-81
2021/01/26 08:41:48;;;;;;;13.40;5.50;;;2.70;72.40;;;1.54;67.97;98469.03;5084184;28;20420;-83
2021/01/26 08:44:50;;;;;;;11.18;5.30;;;2.70;72.10;;;1.20;68.53;98465.84;5083791;28;20415;-82
2021/01/26 08:47:49;;;;;;;14.82;6.28;;;2.50;72.50;;;1.29;69.69;98453.59;5082962;28;20417;-81
2021/01/26 08:50:27;;;;;;;16.75;6.60;;;2.50;73.40;;;1.32;69.52;98463.69;5089977;28;20411;-81
2021/01/26 08:53:12;;;;;;;12.30;6.38;;;2.50;73.60;;;1.36;69.21;98454.53;5089060;28;20419;-82
2021/01/26 08:55:41;;;;;;;12.48;6.68;;;2.60;73.30;;;1.44;69.14;98457.16;5084462;28;20408;-82
2021/01/26 08:58:12;;;;;;;10.30;5.93;;;2.60;73.20;;;1.44;68.75;98464.97;5082494;28;20507;-82
2021/01/26 09:00:45;;;;;;;13.90;6.28;;;2.60;72.90;;;1.45;68.85;98466.59;5084236;28;20457;-82
2021/01/26 09:03:37;;;;;;;12.68;6.47;;;2.70;72.90;;;1.51;68.56;98456.31;5082241;28;20681;-82
2021/01/26 09:06:11;;;;;;;13.60;5.70;;;2.70;72.60;;;1.53;68.00;98469.19;5084368;28;20418;-82
2021/01/26 09:08:55;;;;;;;14.02;5.97;;;2.70;72.20;;;1.65;67.67;98474.88;5085835;28;20454;-82
2021/01/26 09:11:48;;;;;;;11.40;6.13;;;2.80;72.00;;;1.54;68.10;98476.84;5088484;28;20496;-82
2021/01/26 09:14:34;;;;;;;14.95;5.70;;;2.80;71.60;;;1.54;67.09;98479.47;5088517;28;20433;-80
2021/01/26 09:17:06;;;;;;;12.73;5.43;;;2.80;71.20;;;1.67;65.94;98483.34;5090280;28;20434;-82
2021/01/26 09:19:39;;;;;;;11.50;5.18;;;2.80;70.20;;;1.58;66.61;98486.97;5092183;28;20411;-83
2021/01/26 09:22:10;;;;;;;10.90;5.20;;;2.80;70.50;;;1.53;66.58;98487.47;5086074;28;20502;-82
2021/01/26 09:24:37;;;;;;;11.30;5.03;;;2.70;70.60;;;1.64;66.28;98486.31;5085889;28;20407;-81
2021/01/26 09:27:23;;;;;;;10.98;5.60;;;2.80;70.30;;;1.62;65.97;98483.84;5086398;28;20418;-82
2021/01/26 09:30:07;;;;;;;10.20;4.93;;;2.80;70.10;;;1.69;65.74;98481.38;5085266;28;20417;-82
2021/01/26 09:32:34;;;;;;;11.47;5.10;;;2.90;69.70;;;1.83;64.91;98478.06;5085684;28;20421;-81
2021/01/26 09:35:13;;;;;;;14.17;5.37;;;3.00;69.30;;;1.78;64.21;98480.38;5067902;28;20494;-80
2021/01/26 09:37:39;;;;;;;12.18;5.57;;;3.00;68.50;;;1.91;65.21;98481.47;5084970;28;20873;-81
2021/01/26 09:40:09;;;;;;;7.93;4.50;;;3.10;69.20;;;2.04;64.42;98487.94;5084436;28;20435;-82
2021/01/26 09:42:36;;;;;;;11.20;4.77;;;3.20;68.40;;;2.12;63.37;98491.34;5086453;28;20433;-80
2021/01/26 09:45:09;;;;;;;11.25;4.30;;;3.20;67.80;;;2.17;62.64;98496.88;5071221;28;20438;-82
2021/01/26 09:47:36;;;;;;;10.50;4.40;;;3.40;66.90;;;2.15;63.33;98509.28;5090496;28;20404;-82
2021/01/26 09:50:08;;;;;;;8.23;4.22;;;3.30;67.00;;;2.26;62.50;98503.66;5091676;28;20427;-79
2021/01/26 09:52:36;;;;;;;13.98;4.82;;;3.40;66.80;;;2.18;62.90;98502.91;5077211;28;20424;-80
2021/01/26 09:55:09;;;;;;;9.15;4.70;;;3.40;66.80;;;2.31;62.97;98514.44;5092664;28;20436;-80
2021/01/26 09:57:36;;;;;;;12.88;4.53;;;3.50;66.90;;;2.22;61.74;98509.41;5092084;28;20408;-81
2021/01/26 10:00:10;;;;;;;9.98;4.38;;;3.40;65.80;;;2.18;63.00;98515.97;5089006;28;20423;-81
2021/01/26 10:02:38;;;;;;;9.30;4.10;;;3.40;67.00;;;2.26;62.83;98518.53;5085282;28;20440;-80
2021/01/26 10:05:11;;;;;;;8.70;4.10;;;3.40;66.90;;;2.08;62.06;98512.75;5071844;28;20449;-83
2021/01/26 10:07:37;;;;;;;12.10;4.30;;;3.30;65.90;;;2.09;61.96;98514.38;5095596;28;20390;-83
2021/01/26 10:10:22;;;;;;;10.15;4.03;;;3.30;65.90;;;2.11;62.41;98521.03;5093829;28;20404;-83
2021/01/26 10:12:49;;;;;;;7.82;3.88;;;3.30;66.20;;;2.14;62.15;98518.09;5089393;28;20606;-82
2021/01/26 10:15:33;;;;;;;11.35;4.22;;;3.30;66.60;;;2.20;61.18;98524.44;5066464;28;20431;-82
2021/01/26 10:18:08;;;;;;;8.35;4.03;;;3.30;65.10;;;2.14;62.12;98522.50;5083630;28;20418;-82
2021/01/26 10:20:39;;;;;;;11.13;4.00;;;3.30;66.20;;;2.08;62.35;98523.19;5066406;28;20442;-82
2021/01/26 10:23:07;;;;;;;6.80;3.60;;;3.30;65.80;;;2.30;60.66;98525.88;5083319;28;20422;-82
2021/01/26 10:25:34;;;;;;;8.07;3.97;;;3.40;65.10;;;2.40;61.06;98535.31;5084257;28;20506;-82
2021/01/26 10:28:09;;;;;;;7.45;3.70;;;3.50;64.90;;;2.62;60.06;98532.72;5085635;28;20473;-82
2021/01/26 10:30:42;;;;;;;8.07;3.80;;;3.70;64.40;;;2.82;59.82;98538.31;5091353;28;20404;-82
2021/01/26 10:33:09;;;;;;;7.68;3.55;;;3.90;64.10;;;2.69;59.29;98544.13;5084995;28;20426;-82
2021/01/26 10:35:39;;;;;;;6.38;3.20;;;3.90;63.10;;;2.60;59.08;98537.31;5067744;28;20884;-81
2021/01/26 10:38:27;;;;;;;9.63;4.25;;;3.80;63.60;;;2.60;59.18;98545.16;5084801;28;20407;-80
2021/01/26 10:41:07;;;;;;;6.78;3.72;;;3.80;63.30;;;2.39;60.12;98541.50;5071872;28;20556;-82
2021/01/26 10:43:33;;;;;;;7.75;3.90;;;3.50;63.70;;;2.41;59.68;98558.63;5067169;28;20424;-82
2021/01/26 10:46:01;;;;;;;6.27;3.67;;;3.60;63.80;;;2.29;60.14;98549.53;5064108;28;20542;-83
2021/01/26 10:48:31;;;;;;;9.48;3.90;;;3.50;64.00;;;2.31;59.73;98548.41;5081233;28;20680;-84
2021/01/26 10:51:13;;;;;;;7.60;4.13;;;3.50;63.70;;;2.24;59.73;98551.88;5081490;28;20407;-80
2021/01/26 10:53:42;;;;;;;10.20;4.07;;;3.50;63.60;;;2.30;60.26;98552.00;5082719;28;20415;-83
2021/01/26 10:56:09;;;;;;;10.37;3.57;;;3.50;64.20;;;2.37;60.22;98552.13;5082508;28;20426;-82
2021/01/26 10:58:36;;;;;;;10.30;3.97;;;3.50;64.70;;;2.51;59.89;98561.84;5084051;28;20430;-82
2021/01/26 11:01:04;;;;;;;10.75;3.85;;;3.60;63.80;;;2.53;59.22;98557.28;5091629;28;20435;-83
2021/01/26 11:03:30;;;;;;;6.78;4.00;;;3.70;63.30;;;2.57;59.87;98557.72;5090860;28;20395;-84
2021/01/26 11:06:02;;;;;;;9.07;3.97;;;3.70;63.80;;;2.37;59.20;98554.75;5089378;28;20399;-86